sensor_id;sensor_type;location;lat;lon;timestamp;P1;durP1;ratioP1;P2;durP2;ratioP2
69005;SDS011;56061;51.748;19.620;2022-12-11T00:00:48;32.70;;;10.90;;
69005;SDS011;56061;51.748;19.620;2022-12-11T00:03:15;31.00;;;13.40;;
69005;SDS011;56061;51.748;19.620;2022-12-11T00:05:44;30.70;;;10.90;;
69005;SDS011;56061;51.748;19.620;2022-12-11T00:08:11;31.20;;;12.20;;
69005;SDS011;56061;51.748;19.620;2022-12-11T00:10:38;30.70;;;10.90;;
69005;SDS011;56061;51.748;19.620;2022-12-11T00:13:05;33.80;;;12.00;;
69005;SDS011;56061;51.748;19.620;2022-12-11T00:15:31;32.80;;;11.40;;
69005;SDS011;56061;51.748;19.620;2022-12-11T00:17:58;32.70;;;11.60;;
69005;SDS011;56061;51.748;19.620;2022-12-11T00:20:24;31.70;;;12.20;;
69005;SDS011;56061;51.748;19.620;2022-12-11T00:22:52;34.70;;;12.80;;
69005;SDS011;56061;51.748;19.620;2022-12-11T00:25:18;34.30;;;14.40;;
69005;SDS011;56061;51.748;19.620;2022-12-11T00:27:45;36.20;;;14.60;;
69005;SDS011;56061;51.748;19.620;2022-12-11T00:30:13;34.60;;;13.40;;
69005;SDS011;56061;51.748;19.620;2022-12-11T00:32:40;37.00;;;14.40;;
69005;SDS011;56061;51.748;19.620;2022-12-11T00:35:06;37.30;;;12.30;;
69005;SDS011;56061;51.748;19.620;2022-12-11T00:37:34;33.00;;;12.00;;
69005;SDS011;56061;51.748;19.620;2022-12-11T00:40:00;31.20;;;12.10;;
69005;SDS011;56061;51.748;19.620;2022-12-11T00:42:27;32.10;;;11.80;;
69005;SDS011;56061;51.748;19.620;2022-12-11T00:44:53;36.60;;;13.30;;
69005;SDS011;56061;51.748;19.620;2022-12-11T00:47:21;26.00;;;10.10;;
69005;SDS011;56061;51.748;19.620;2022-12-11T00:49:47;35.40;;;13.40;;
69005;SDS011;56061;51.748;19.620;2022-12-11T00:52:15;36.70;;;13.70;;
69005;SDS011;56061;51.748;19.620;2022-12-11T00:54:43;30.90;;;12.60;;
69005;SDS011;56061;51.748;19.620;2022-12-11T00:57:10;23.80;;;10.10;;
69005;SDS011;56061;51.748;19.620;2022-12-11T00:59:36;29.50;;;10.70;;
69005;SDS011;56061;51.748;19.620;2022-12-11T01:02:03;31.90;;;12.90;;
69005;SDS011;56061;51.748;19.620;2022-12-11T01:04:29;32.80;;;12.30;;
69005;SDS011;56061;51.748;19.620;2022-12-11T01:06:56;32.10;;;11.80;;
69005;SDS011;56061;51.748;19.620;2022-12-11T01:09:22;37.10;;;12.30;;
69005;SDS011;56061;51.748;19.620;2022-12-11T01:12:07;33.40;;;12.60;;
69005;SDS011;56061;51.748;19.620;2022-12-11T01:14:34;32.90;;;13.50;;
69005;SDS011;56061;51.748;19.620;2022-12-11T01:17:00;32.00;;;13.70;;
69005;SDS011;56061;51.748;19.620;2022-12-11T01:19:27;32.40;;;13.20;;
69005;SDS011;56061;51.748;19.620;2022-12-11T01:21:53;28.60;;;10.90;;
69005;SDS011;56061;51.748;19.620;2022-12-11T01:24:20;29.10;;;10.70;;
69005;SDS011;56061;51.748;19.620;2022-12-11T01:26:46;22.50;;;8.10;;
69005;SDS011;56061;51.748;19.620;2022-12-11T01:29:14;31.60;;;11.00;;
69005;SDS011;56061;51.748;19.620;2022-12-11T01:31:40;28.70;;;10.80;;
69005;SDS011;56061;51.748;19.620;2022-12-11T01:34:07;29.10;;;12.20;;
69005;SDS011;56061;51.748;19.620;2022-12-11T01:36:33;25.70;;;10.50;;
69005;SDS011;56061;51.748;19.620;2022-12-11T01:38:59;28.90;;;10.60;;
69005;SDS011;56061;51.748;19.620;2022-12-11T01:41:26;24.80;;;9.20;;
69005;SDS011;56061;51.748;19.620;2022-12-11T01:45:00;24.60;;;9.70;;
69005;SDS011;56061;51.748;19.620;2022-12-11T01:46:55;41.00;;;17.20;;
69005;SDS011;56061;51.748;19.620;2022-12-11T01:49:24;21.20;;;8.50;;
69005;SDS011;56061;51.748;19.620;2022-12-11T01:52:01;22.30;;;9.20;;
69005;SDS011;56061;51.748;19.620;2022-12-11T01:54:31;31.50;;;12.90;;
69005;SDS011;56061;51.748;19.620;2022-12-11T01:57:01;30.20;;;11.50;;
69005;SDS011;56061;51.748;19.620;2022-12-11T01:59:34;29.80;;;12.10;;
69005;SDS011;56061;51.748;19.620;2022-12-11T02:02:13;27.90;;;10.60;;
69005;SDS011;56061;51.748;19.620;2022-12-11T02:04:44;28.50;;;12.20;;
69005;SDS011;56061;51.748;19.620;2022-12-11T02:07:12;26.40;;;12.40;;
69005;SDS011;56061;51.748;19.620;2022-12-11T02:09:40;29.30;;;12.30;;
69005;SDS011;56061;51.748;19.620;2022-12-11T02:12:17;30.00;;;12.20;;
69005;SDS011;56061;51.748;19.620;2022-12-11T02:18:13;26.10;;;11.00;;
69005;SDS011;56061;51.748;19.620;2022-12-11T02:23:58;46.00;;;17.80;;
69005;SDS011;56061;51.748;19.620;2022-12-11T02:30:04;35.00;;;14.70;;
69005;SDS011;56061;51.748;19.620;2022-12-11T02:32:44;31.80;;;13.90;;
69005;SDS011;56061;51.748;19.620;2022-12-11T02:38:08;31.70;;;11.50;;
69005;SDS011;56061;51.748;19.620;2022-12-11T02:40:39;47.50;;;19.10;;
69005;SDS011;56061;51.748;19.620;2022-12-11T02:43:10;34.30;;;14.90;;
69005;SDS011;56061;51.748;19.620;2022-12-11T02:45:41;32.80;;;13.10;;
69005;SDS011;56061;51.748;19.620;2022-12-11T02:48:12;32.40;;;12.30;;
69005;SDS011;56061;51.748;19.620;2022-12-11T02:50:46;31.20;;;12.40;;
69005;SDS011;56061;51.748;19.620;2022-12-11T02:53:18;29.80;;;12.20;;
69005;SDS011;56061;51.748;19.620;2022-12-11T02:55:50;28.70;;;9.90;;
69005;SDS011;56061;51.748;19.620;2022-12-11T02:58:33;26.50;;;11.00;;
69005;SDS011;56061;51.748;19.620;2022-12-11T03:01:03;25.70;;;9.70;;
69005;SDS011;56061;51.748;19.620;2022-12-11T03:03:29;32.60;;;11.70;;
69005;SDS011;56061;51.748;19.620;2022-12-11T03:05:56;30.70;;;11.70;;
69005;SDS011;56061;51.748;19.620;2022-12-11T03:08:22;34.30;;;12.30;;
69005;SDS011;56061;51.748;19.620;2022-12-11T03:10:49;23.20;;;8.80;;
69005;SDS011;56061;51.748;19.620;2022-12-11T03:13:19;27.80;;;10.80;;
69005;SDS011;56061;51.748;19.620;2022-12-11T03:21:52;29.10;;;12.00;;
69005;SDS011;56061;51.748;19.620;2022-12-11T03:24:39;29.90;;;11.60;;
69005;SDS011;56061;51.748;19.620;2022-12-11T03:29:59;29.70;;;12.70;;
69005;SDS011;56061;51.748;19.620;2022-12-11T03:32:35;21.10;;;8.30;;
69005;SDS011;56061;51.748;19.620;2022-12-11T03:35:12;32.90;;;11.70;;
69005;SDS011;56061;51.748;19.620;2022-12-11T03:37:44;24.90;;;10.60;;
69005;SDS011;56061;51.748;19.620;2022-12-11T03:40:16;26.00;;;9.80;;
69005;SDS011;56061;51.748;19.620;2022-12-11T03:42:48;25.60;;;11.10;;
69005;SDS011;56061;51.748;19.620;2022-12-11T03:45:19;21.70;;;6.50;;
69005;SDS011;56061;51.748;19.620;2022-12-11T03:47:50;17.50;;;6.20;;
69005;SDS011;56061;51.748;19.620;2022-12-11T03:50:27;23.90;;;9.40;;
69005;SDS011;56061;51.748;19.620;2022-12-11T03:52:57;26.10;;;11.10;;
69005;SDS011;56061;51.748;19.620;2022-12-11T03:55:26;23.00;;;7.90;;
69005;SDS011;56061;51.748;19.620;2022-12-11T03:57:55;16.60;;;5.50;;
69005;SDS011;56061;51.748;19.620;2022-12-11T04:00:22;26.80;;;10.90;;
69005;SDS011;56061;51.748;19.620;2022-12-11T04:02:48;22.00;;;10.40;;
69005;SDS011;56061;51.748;19.620;2022-12-11T04:05:50;21.00;;;9.80;;
69005;SDS011;56061;51.748;19.620;2022-12-11T04:08:21;22.00;;;9.30;;
69005;SDS011;56061;51.748;19.620;2022-12-11T04:10:49;24.00;;;9.00;;
69005;SDS011;56061;51.748;19.620;2022-12-11T04:13:37;26.80;;;10.90;;
69005;SDS011;56061;51.748;19.620;2022-12-11T04:16:05;22.20;;;9.10;;
69005;SDS011;56061;51.748;19.620;2022-12-11T04:18:32;24.10;;;9.40;;
69005;SDS011;56061;51.748;19.620;2022-12-11T04:21:18;25.30;;;11.40;;
69005;SDS011;56061;51.748;19.620;2022-12-11T04:24:05;25.10;;;10.70;;
69005;SDS011;56061;51.748;19.620;2022-12-11T04:26:43;18.70;;;7.90;;
69005;SDS011;56061;51.748;19.620;2022-12-11T04:29:10;26.50;;;9.70;;
69005;SDS011;56061;51.748;19.620;2022-12-11T04:31:38;18.60;;;7.70;;
69005;SDS011;56061;51.748;19.620;2022-12-11T04:34:04;23.20;;;10.70;;
69005;SDS011;56061;51.748;19.620;2022-12-11T04:36:31;23.30;;;9.80;;
69005;SDS011;56061;51.748;19.620;2022-12-11T04:38:57;23.50;;;9.40;;
69005;SDS011;56061;51.748;19.620;2022-12-11T04:41:24;16.50;;;6.50;;
69005;SDS011;56061;51.748;19.620;2022-12-11T04:43:50;24.50;;;10.70;;
69005;SDS011;56061;51.748;19.620;2022-12-11T04:46:19;26.30;;;11.90;;
69005;SDS011;56061;51.748;19.620;2022-12-11T04:48:48;23.20;;;9.40;;
69005;SDS011;56061;51.748;19.620;2022-12-11T04:51:22;26.20;;;10.30;;
69005;SDS011;56061;51.748;19.620;2022-12-11T04:53:48;25.40;;;9.50;;
69005;SDS011;56061;51.748;19.620;2022-12-11T04:56:15;26.10;;;11.10;;
69005;SDS011;56061;51.748;19.620;2022-12-11T04:58:43;32.10;;;14.10;;
69005;SDS011;56061;51.748;19.620;2022-12-11T05:01:12;26.60;;;10.70;;
69005;SDS011;56061;51.748;19.620;2022-12-11T05:03:41;25.90;;;10.70;;
69005;SDS011;56061;51.748;19.620;2022-12-11T05:06:09;17.40;;;6.80;;
69005;SDS011;56061;51.748;19.620;2022-12-11T05:08:38;27.30;;;11.20;;
69005;SDS011;56061;51.748;19.620;2022-12-11T05:11:09;29.70;;;12.40;;
69005;SDS011;56061;51.748;19.620;2022-12-11T05:13:37;26.40;;;11.50;;
69005;SDS011;56061;51.748;19.620;2022-12-11T05:16:06;25.60;;;10.40;;
69005;SDS011;56061;51.748;19.620;2022-12-11T05:18:34;26.70;;;11.00;;
69005;SDS011;56061;51.748;19.620;2022-12-11T05:21:03;24.10;;;10.90;;
69005;SDS011;56061;51.748;19.620;2022-12-11T05:23:33;26.60;;;10.80;;
69005;SDS011;56061;51.748;19.620;2022-12-11T05:26:03;22.40;;;7.80;;
69005;SDS011;56061;51.748;19.620;2022-12-11T05:28:35;27.80;;;12.80;;
69005;SDS011;56061;51.748;19.620;2022-12-11T05:31:06;30.90;;;11.70;;
69005;SDS011;56061;51.748;19.620;2022-12-11T05:33:34;33.70;;;13.60;;
69005;SDS011;56061;51.748;19.620;2022-12-11T05:36:00;35.10;;;13.10;;
69005;SDS011;56061;51.748;19.620;2022-12-11T05:38:27;31.20;;;12.20;;
69005;SDS011;56061;51.748;19.620;2022-12-11T05:41:00;24.90;;;11.00;;
69005;SDS011;56061;51.748;19.620;2022-12-11T05:43:31;27.40;;;10.60;;
69005;SDS011;56061;51.748;19.620;2022-12-11T05:46:14;27.40;;;11.30;;
69005;SDS011;56061;51.748;19.620;2022-12-11T05:48:43;24.10;;;10.20;;
69005;SDS011;56061;51.748;19.620;2022-12-11T05:51:14;27.70;;;12.40;;
69005;SDS011;56061;51.748;19.620;2022-12-11T05:53:42;27.90;;;10.30;;
69005;SDS011;56061;51.748;19.620;2022-12-11T05:56:24;31.50;;;11.40;;
69005;SDS011;56061;51.748;19.620;2022-12-11T05:58:53;26.10;;;9.00;;
69005;SDS011;56061;51.748;19.620;2022-12-11T06:01:46;26.70;;;11.80;;
69005;SDS011;56061;51.748;19.620;2022-12-11T06:04:13;24.90;;;11.60;;
69005;SDS011;56061;51.748;19.620;2022-12-11T06:06:40;28.50;;;12.10;;
69005;SDS011;56061;51.748;19.620;2022-12-11T06:09:06;34.50;;;14.10;;
69005;SDS011;56061;51.748;19.620;2022-12-11T06:11:33;30.70;;;11.60;;
69005;SDS011;56061;51.748;19.620;2022-12-11T06:14:01;31.20;;;11.80;;
69005;SDS011;56061;51.748;19.620;2022-12-11T06:16:29;35.70;;;13.10;;
69005;SDS011;56061;51.748;19.620;2022-12-11T06:18:57;55.10;;;23.30;;
69005;SDS011;56061;51.748;19.620;2022-12-11T06:21:29;34.50;;;14.90;;
69005;SDS011;56061;51.748;19.620;2022-12-11T06:23:59;36.90;;;15.80;;
69005;SDS011;56061;51.748;19.620;2022-12-11T06:26:28;34.80;;;15.60;;
69005;SDS011;56061;51.748;19.620;2022-12-11T06:28:57;32.80;;;12.10;;
69005;SDS011;56061;51.748;19.620;2022-12-11T06:31:23;26.30;;;11.10;;
69005;SDS011;56061;51.748;19.620;2022-12-11T06:33:50;33.70;;;13.70;;
69005;SDS011;56061;51.748;19.620;2022-12-11T06:36:20;37.10;;;15.10;;
69005;SDS011;56061;51.748;19.620;2022-12-11T06:38:47;35.90;;;14.00;;
69005;SDS011;56061;51.748;19.620;2022-12-11T06:41:14;24.80;;;8.00;;
69005;SDS011;56061;51.748;19.620;2022-12-11T06:43:41;30.30;;;12.30;;
69005;SDS011;56061;51.748;19.620;2022-12-11T06:46:11;24.90;;;8.10;;
69005;SDS011;56061;51.748;19.620;2022-12-11T06:48:40;23.50;;;9.60;;
69005;SDS011;56061;51.748;19.620;2022-12-11T06:51:13;20.10;;;7.10;;
69005;SDS011;56061;51.748;19.620;2022-12-11T06:53:44;34.90;;;13.60;;
69005;SDS011;56061;51.748;19.620;2022-12-11T06:56:15;28.00;;;9.70;;
69005;SDS011;56061;51.748;19.620;2022-12-11T06:58:42;32.90;;;13.20;;
69005;SDS011;56061;51.748;19.620;2022-12-11T07:01:18;33.20;;;12.80;;
69005;SDS011;56061;51.748;19.620;2022-12-11T07:03:47;28.50;;;11.40;;
69005;SDS011;56061;51.748;19.620;2022-12-11T07:06:14;30.00;;;10.10;;
69005;SDS011;56061;51.748;19.620;2022-12-11T07:08:41;17.10;;;6.70;;
69005;SDS011;56061;51.748;19.620;2022-12-11T07:11:11;24.40;;;8.20;;
69005;SDS011;56061;51.748;19.620;2022-12-11T07:13:39;23.10;;;9.30;;
69005;SDS011;56061;51.748;19.620;2022-12-11T07:16:08;20.10;;;6.10;;
69005;SDS011;56061;51.748;19.620;2022-12-11T07:18:38;22.00;;;8.90;;
69005;SDS011;56061;51.748;19.620;2022-12-11T07:21:07;17.30;;;6.50;;
69005;SDS011;56061;51.748;19.620;2022-12-11T07:23:35;19.00;;;7.70;;
69005;SDS011;56061;51.748;19.620;2022-12-11T07:26:11;23.00;;;8.30;;
69005;SDS011;56061;51.748;19.620;2022-12-11T07:28:40;20.80;;;7.90;;
69005;SDS011;56061;51.748;19.620;2022-12-11T07:31:10;18.20;;;7.00;;
69005;SDS011;56061;51.748;19.620;2022-12-11T07:33:38;26.90;;;10.90;;
69005;SDS011;56061;51.748;19.620;2022-12-11T07:36:07;24.90;;;9.00;;
69005;SDS011;56061;51.748;19.620;2022-12-11T07:38:35;24.60;;;8.50;;
69005;SDS011;56061;51.748;19.620;2022-12-11T07:41:04;26.00;;;9.20;;
69005;SDS011;56061;51.748;19.620;2022-12-11T07:43:33;20.60;;;8.20;;
69005;SDS011;56061;51.748;19.620;2022-12-11T07:46:04;21.70;;;8.70;;
69005;SDS011;56061;51.748;19.620;2022-12-11T07:48:37;19.80;;;8.20;;
69005;SDS011;56061;51.748;19.620;2022-12-11T07:51:13;22.70;;;8.40;;
69005;SDS011;56061;51.748;19.620;2022-12-11T07:53:46;18.90;;;7.20;;
69005;SDS011;56061;51.748;19.620;2022-12-11T07:56:14;16.10;;;7.00;;
69005;SDS011;56061;51.748;19.620;2022-12-11T07:58:42;21.50;;;8.80;;
69005;SDS011;56061;51.748;19.620;2022-12-11T08:01:20;21.90;;;9.00;;
69005;SDS011;56061;51.748;19.620;2022-12-11T08:03:52;18.00;;;7.30;;
69005;SDS011;56061;51.748;19.620;2022-12-11T08:06:19;18.80;;;7.10;;
69005;SDS011;56061;51.748;19.620;2022-12-11T08:08:53;24.60;;;9.00;;
69005;SDS011;56061;51.748;19.620;2022-12-11T08:11:20;21.10;;;8.70;;
69005;SDS011;56061;51.748;19.620;2022-12-11T08:13:46;19.50;;;8.50;;
69005;SDS011;56061;51.748;19.620;2022-12-11T08:16:14;18.20;;;7.50;;
69005;SDS011;56061;51.748;19.620;2022-12-11T08:18:43;18.10;;;7.50;;
69005;SDS011;56061;51.748;19.620;2022-12-11T08:21:13;18.90;;;7.20;;
69005;SDS011;56061;51.748;19.620;2022-12-11T08:23:41;25.90;;;10.60;;
69005;SDS011;56061;51.748;19.620;2022-12-11T08:26:12;22.50;;;9.50;;
69005;SDS011;56061;51.748;19.620;2022-12-11T08:28:42;27.90;;;11.90;;
69005;SDS011;56061;51.748;19.620;2022-12-11T08:31:10;21.80;;;10.90;;
69005;SDS011;56061;51.748;19.620;2022-12-11T08:33:40;21.50;;;10.40;;
69005;SDS011;56061;51.748;19.620;2022-12-11T08:36:09;20.90;;;8.40;;
69005;SDS011;56061;51.748;19.620;2022-12-11T08:38:37;24.30;;;10.30;;
69005;SDS011;56061;51.748;19.620;2022-12-11T08:41:15;22.60;;;8.90;;
69005;SDS011;56061;51.748;19.620;2022-12-11T08:43:43;24.80;;;10.50;;
69005;SDS011;56061;51.748;19.620;2022-12-11T08:46:11;22.40;;;8.70;;
69005;SDS011;56061;51.748;19.620;2022-12-11T08:48:41;24.50;;;10.60;;
69005;SDS011;56061;51.748;19.620;2022-12-11T08:51:12;22.10;;;9.80;;
69005;SDS011;56061;51.748;19.620;2022-12-11T08:53:40;22.30;;;9.40;;
69005;SDS011;56061;51.748;19.620;2022-12-11T08:56:09;22.00;;;9.10;;
69005;SDS011;56061;51.748;19.620;2022-12-11T08:58:37;19.40;;;8.60;;
69005;SDS011;56061;51.748;19.620;2022-12-11T09:01:08;20.50;;;9.60;;
69005;SDS011;56061;51.748;19.620;2022-12-11T09:03:37;16.70;;;6.50;;
69005;SDS011;56061;51.748;19.620;2022-12-11T09:06:15;17.20;;;6.10;;
69005;SDS011;56061;51.748;19.620;2022-12-11T09:08:45;24.70;;;9.80;;
69005;SDS011;56061;51.748;19.620;2022-12-11T09:11:21;17.50;;;8.00;;
69005;SDS011;56061;51.748;19.620;2022-12-11T09:13:50;17.90;;;7.30;;
69005;SDS011;56061;51.748;19.620;2022-12-11T09:16:18;22.20;;;9.70;;
69005;SDS011;56061;51.748;19.620;2022-12-11T09:18:49;21.40;;;9.30;;
69005;SDS011;56061;51.748;19.620;2022-12-11T09:21:20;22.60;;;9.00;;
69005;SDS011;56061;51.748;19.620;2022-12-11T09:23:51;30.10;;;11.30;;
69005;SDS011;56061;51.748;19.620;2022-12-11T09:26:18;28.40;;;13.60;;
69005;SDS011;56061;51.748;19.620;2022-12-11T09:28:45;20.60;;;8.10;;
69005;SDS011;56061;51.748;19.620;2022-12-11T09:31:16;21.40;;;10.10;;
69005;SDS011;56061;51.748;19.620;2022-12-11T09:33:44;17.70;;;7.10;;
69005;SDS011;56061;51.748;19.620;2022-12-11T09:36:12;25.00;;;11.00;;
69005;SDS011;56061;51.748;19.620;2022-12-11T09:38:38;23.30;;;10.50;;
69005;SDS011;56061;51.748;19.620;2022-12-11T09:44:23;24.00;;;9.20;;
69005;SDS011;56061;51.748;19.620;2022-12-11T09:46:46;17.40;;;7.10;;
69005;SDS011;56061;51.748;19.620;2022-12-11T09:49:21;22.50;;;8.70;;
69005;SDS011;56061;51.748;19.620;2022-12-11T09:52:09;23.00;;;10.80;;
69005;SDS011;56061;51.748;19.620;2022-12-11T09:54:44;22.40;;;10.30;;
69005;SDS011;56061;51.748;19.620;2022-12-11T10:00:13;22.50;;;10.00;;
69005;SDS011;56061;51.748;19.620;2022-12-11T10:02:59;18.10;;;7.70;;
69005;SDS011;56061;51.748;19.620;2022-12-11T10:15:37;19.00;;;7.20;;
69005;SDS011;56061;51.748;19.620;2022-12-11T10:18:16;23.50;;;9.60;;
69005;SDS011;56061;51.748;19.620;2022-12-11T10:20:48;22.00;;;10.80;;
69005;SDS011;56061;51.748;19.620;2022-12-11T10:23:19;22.20;;;9.80;;
69005;SDS011;56061;51.748;19.620;2022-12-11T10:26:03;19.80;;;10.20;;
69005;SDS011;56061;51.748;19.620;2022-12-11T10:28:33;22.30;;;10.40;;
69005;SDS011;56061;51.748;19.620;2022-12-11T10:34:12;18.70;;;8.60;;
69005;SDS011;56061;51.748;19.620;2022-12-11T10:36:44;24.50;;;10.30;;
69005;SDS011;56061;51.748;19.620;2022-12-11T10:39:17;23.10;;;11.20;;
69005;SDS011;56061;51.748;19.620;2022-12-11T10:41:48;26.80;;;11.60;;
69005;SDS011;56061;51.748;19.620;2022-12-11T10:44:24;23.90;;;10.30;;
69005;SDS011;56061;51.748;19.620;2022-12-11T10:47:12;25.90;;;12.40;;
69005;SDS011;56061;51.748;19.620;2022-12-11T10:49:52;30.20;;;13.00;;
69005;SDS011;56061;51.748;19.620;2022-12-11T10:52:36;37.00;;;16.30;;
69005;SDS011;56061;51.748;19.620;2022-12-11T10:55:21;26.00;;;11.10;;
69005;SDS011;56061;51.748;19.620;2022-12-11T10:57:57;20.70;;;9.90;;
69005;SDS011;56061;51.748;19.620;2022-12-11T11:03:40;32.70;;;14.20;;
69005;SDS011;56061;51.748;19.620;2022-12-11T11:06:19;27.40;;;12.50;;
69005;SDS011;56061;51.748;19.620;2022-12-11T11:08:52;26.10;;;12.00;;
69005;SDS011;56061;51.748;19.620;2022-12-11T11:11:30;30.60;;;14.10;;
69005;SDS011;56061;51.748;19.620;2022-12-11T11:16:37;25.70;;;10.40;;
69005;SDS011;56061;51.748;19.620;2022-12-11T11:19:05;22.00;;;9.30;;
69005;SDS011;56061;51.748;19.620;2022-12-11T11:21:34;19.90;;;9.00;;
69005;SDS011;56061;51.748;19.620;2022-12-11T11:24:01;17.20;;;8.30;;
69005;SDS011;56061;51.748;19.620;2022-12-11T11:26:31;24.60;;;9.90;;
69005;SDS011;56061;51.748;19.620;2022-12-11T11:29:29;25.20;;;11.10;;
69005;SDS011;56061;51.748;19.620;2022-12-11T11:32:13;25.10;;;10.70;;
69005;SDS011;56061;51.748;19.620;2022-12-11T11:34:43;22.70;;;9.70;;
69005;SDS011;56061;51.748;19.620;2022-12-11T11:37:32;18.20;;;7.90;;
69005;SDS011;56061;51.748;19.620;2022-12-11T11:40:20;21.30;;;8.30;;
69005;SDS011;56061;51.748;19.620;2022-12-11T11:43:02;16.50;;;7.60;;
69005;SDS011;56061;51.748;19.620;2022-12-11T11:45:43;12.60;;;5.70;;
69005;SDS011;56061;51.748;19.620;2022-12-11T11:51:11;18.20;;;7.50;;
69005;SDS011;56061;51.748;19.620;2022-12-11T11:53:44;19.40;;;8.70;;
69005;SDS011;56061;51.748;19.620;2022-12-11T11:56:30;16.00;;;7.20;;
69005;SDS011;56061;51.748;19.620;2022-12-11T12:01:46;17.70;;;7.90;;
69005;SDS011;56061;51.748;19.620;2022-12-11T12:04:13;14.00;;;5.60;;
69005;SDS011;56061;51.748;19.620;2022-12-11T12:09:44;19.90;;;8.60;;
69005;SDS011;56061;51.748;19.620;2022-12-11T12:15:42;16.60;;;6.90;;
69005;SDS011;56061;51.748;19.620;2022-12-11T12:21:29;21.10;;;8.50;;
69005;SDS011;56061;51.748;19.620;2022-12-11T12:26:40;23.70;;;9.60;;
69005;SDS011;56061;51.748;19.620;2022-12-11T12:30:13;19.60;;;8.20;;
69005;SDS011;56061;51.748;19.620;2022-12-11T12:41:26;20.00;;;7.70;;
69005;SDS011;56061;51.748;19.620;2022-12-11T12:44:12;22.80;;;9.30;;
69005;SDS011;56061;51.748;19.620;2022-12-11T12:49:49;19.20;;;7.30;;
69005;SDS011;56061;51.748;19.620;2022-12-11T12:52:35;19.20;;;7.50;;
69005;SDS011;56061;51.748;19.620;2022-12-11T13:03:16;20.90;;;8.20;;
69005;SDS011;56061;51.748;19.620;2022-12-11T13:05:59;21.00;;;8.30;;
69005;SDS011;56061;51.748;19.620;2022-12-11T13:08:33;17.20;;;6.20;;
69005;SDS011;56061;51.748;19.620;2022-12-11T13:11:07;22.60;;;9.90;;
69005;SDS011;56061;51.748;19.620;2022-12-11T13:13:38;26.60;;;9.90;;
69005;SDS011;56061;51.748;19.620;2022-12-11T13:18:44;21.20;;;8.70;;
69005;SDS011;56061;51.748;19.620;2022-12-11T13:23:54;19.70;;;8.40;;
69005;SDS011;56061;51.748;19.620;2022-12-11T13:26:38;19.90;;;8.00;;
69005;SDS011;56061;51.748;19.620;2022-12-11T13:29:05;24.10;;;9.50;;
69005;SDS011;56061;51.748;19.620;2022-12-11T13:31:38;18.20;;;7.80;;
69005;SDS011;56061;51.748;19.620;2022-12-11T13:34:15;27.20;;;11.50;;
69005;SDS011;56061;51.748;19.620;2022-12-11T13:36:53;24.50;;;9.60;;
69005;SDS011;56061;51.748;19.620;2022-12-11T13:39:21;23.50;;;9.70;;
69005;SDS011;56061;51.748;19.620;2022-12-11T13:42:03;20.80;;;10.10;;
69005;SDS011;56061;51.748;19.620;2022-12-11T13:44:40;22.90;;;10.20;;
69005;SDS011;56061;51.748;19.620;2022-12-11T13:47:13;22.90;;;10.20;;
69005;SDS011;56061;51.748;19.620;2022-12-11T13:49:43;17.60;;;8.30;;
69005;SDS011;56061;51.748;19.620;2022-12-11T13:52:24;15.70;;;7.00;;
69005;SDS011;56061;51.748;19.620;2022-12-11T13:54:54;19.30;;;7.60;;
69005;SDS011;56061;51.748;19.620;2022-12-11T13:57:25;18.50;;;7.80;;
69005;SDS011;56061;51.748;19.620;2022-12-11T13:59:57;18.00;;;7.50;;
69005;SDS011;56061;51.748;19.620;2022-12-11T14:02:37;17.50;;;7.60;;
69005;SDS011;56061;51.748;19.620;2022-12-11T14:05:07;15.50;;;6.60;;
69005;SDS011;56061;51.748;19.620;2022-12-11T14:07:46;18.70;;;7.20;;
69005;SDS011;56061;51.748;19.620;2022-12-11T14:10:31;21.90;;;8.70;;
69005;SDS011;56061;51.748;19.620;2022-12-11T14:15:25;17.40;;;7.10;;
69005;SDS011;56061;51.748;19.620;2022-12-11T14:17:54;21.20;;;8.50;;
69005;SDS011;56061;51.748;19.620;2022-12-11T14:20:26;16.20;;;7.20;;
69005;SDS011;56061;51.748;19.620;2022-12-11T14:23:24;16.80;;;7.00;;
69005;SDS011;56061;51.748;19.620;2022-12-11T14:28:41;17.50;;;7.70;;
69005;SDS011;56061;51.748;19.620;2022-12-11T14:31:12;17.90;;;8.20;;
69005;SDS011;56061;51.748;19.620;2022-12-11T14:33:47;20.30;;;8.00;;
69005;SDS011;56061;51.748;19.620;2022-12-11T14:36:18;19.70;;;8.10;;
69005;SDS011;56061;51.748;19.620;2022-12-11T14:38:54;22.20;;;8.80;;
69005;SDS011;56061;51.748;19.620;2022-12-11T14:41:41;20.80;;;7.70;;
69005;SDS011;56061;51.748;19.620;2022-12-11T14:44:14;16.60;;;6.70;;
69005;SDS011;56061;51.748;19.620;2022-12-11T14:46:46;15.60;;;6.70;;
69005;SDS011;56061;51.748;19.620;2022-12-11T14:49:19;19.70;;;7.70;;
69005;SDS011;56061;51.748;19.620;2022-12-11T14:51:51;16.70;;;7.50;;
69005;SDS011;56061;51.748;19.620;2022-12-11T14:54:34;18.90;;;6.60;;
69005;SDS011;56061;51.748;19.620;2022-12-11T14:57:07;17.60;;;7.60;;
69005;SDS011;56061;51.748;19.620;2022-12-11T14:59:44;18.50;;;7.40;;
69005;SDS011;56061;51.748;19.620;2022-12-11T15:02:28;19.10;;;7.90;;
69005;SDS011;56061;51.748;19.620;2022-12-11T15:05:16;22.90;;;8.70;;
69005;SDS011;56061;51.748;19.620;2022-12-11T15:10:38;19.90;;;7.80;;
69005;SDS011;56061;51.748;19.620;2022-12-11T15:13:08;20.50;;;9.40;;
69005;SDS011;56061;51.748;19.620;2022-12-11T15:15:43;22.20;;;9.50;;
69005;SDS011;56061;51.748;19.620;2022-12-11T15:18:22;24.40;;;9.80;;
69005;SDS011;56061;51.748;19.620;2022-12-11T15:20:56;12.60;;;3.80;;
69005;SDS011;56061;51.748;19.620;2022-12-11T15:23:26;19.50;;;9.40;;
69005;SDS011;56061;51.748;19.620;2022-12-11T15:25:55;18.60;;;8.00;;
69005;SDS011;56061;51.748;19.620;2022-12-11T15:28:29;20.70;;;10.00;;
69005;SDS011;56061;51.748;19.620;2022-12-11T15:31:04;19.80;;;8.70;;
69005;SDS011;56061;51.748;19.620;2022-12-11T15:33:44;20.70;;;9.20;;
69005;SDS011;56061;51.748;19.620;2022-12-11T15:38:56;20.60;;;9.20;;
69005;SDS011;56061;51.748;19.620;2022-12-11T15:41:24;22.90;;;8.30;;
69005;SDS011;56061;51.748;19.620;2022-12-11T15:43:53;20.10;;;9.80;;
69005;SDS011;56061;51.748;19.620;2022-12-11T15:46:24;14.80;;;6.00;;
69005;SDS011;56061;51.748;19.620;2022-12-11T15:48:52;20.40;;;9.70;;
69005;SDS011;56061;51.748;19.620;2022-12-11T15:51:20;25.40;;;10.00;;
69005;SDS011;56061;51.748;19.620;2022-12-11T15:53:48;24.90;;;10.60;;
69005;SDS011;56061;51.748;19.620;2022-12-11T15:56:15;25.40;;;10.20;;
69005;SDS011;56061;51.748;19.620;2022-12-11T15:58:43;25.70;;;11.60;;
69005;SDS011;56061;51.748;19.620;2022-12-11T16:01:12;25.20;;;11.70;;
69005;SDS011;56061;51.748;19.620;2022-12-11T16:03:39;29.20;;;9.70;;
69005;SDS011;56061;51.748;19.620;2022-12-11T16:06:08;22.50;;;10.70;;
69005;SDS011;56061;51.748;19.620;2022-12-11T16:08:37;23.70;;;10.40;;
69005;SDS011;56061;51.748;19.620;2022-12-11T16:11:03;24.00;;;10.80;;
69005;SDS011;56061;51.748;19.620;2022-12-11T16:13:30;26.20;;;11.90;;
69005;SDS011;56061;51.748;19.620;2022-12-11T16:15:56;30.80;;;11.60;;
69005;SDS011;56061;51.748;19.620;2022-12-11T16:18:23;23.40;;;8.60;;
69005;SDS011;56061;51.748;19.620;2022-12-11T16:20:51;24.30;;;10.20;;
69005;SDS011;56061;51.748;19.620;2022-12-11T16:23:18;30.60;;;12.30;;